SWR785 LSZH-LPMA
Flight info
| Callsign | SWR785 |
|---|---|
| Flight time | N/A |
| Altitude | 33000 |
| Route | VEBIT T50 ROTOS Z669 ULMES DCT VADAR DCT NINTU/N0488F410 DCT MEBAK DCT REPSI DCT LERGA DCT MINSO DCT NARAK DCT AGN DCT PIPOR DCT PPN DCT MIRPO DCT DGO DCT NEA DCT ARDID DCT FTM DCT NASAS DCT LIDRO |
| Aircraft | A359/H-SDE2E3GHIJ3J4J5LM1ORWXY/LB1D1 |
Departure
| Time | 2026-05-06 12:42 |
|---|---|
| Airport | Zürich Airport (LSZH) |
Arrival
| Time | N/A |
|---|---|
| Airport | Cristiano Ronaldo International Airport (LPMA) |
| Time | Latitude | Longitude | Altitude | Speed | Heading |
|---|---|---|---|---|---|
| 2026-05-06 12:10 | 47.46035 | 8.55622 | 1403 ft | 0 kts | 6° |
| 2026-05-06 12:34 | 47.46017 | 8.55620 | 1393 ft | 4 kts | 6° |
| 2026-05-06 12:34 | 47.45994 | 8.55616 | 1415 ft | 3 kts | 7° |
| 2026-05-06 12:34 | 47.45971 | 8.55605 | 1411 ft | 4 kts | 49° |
| 2026-05-06 12:35 | 47.45961 | 8.55572 | 1407 ft | 4 kts | 92° |
| 2026-05-06 12:35 | 47.45961 | 8.55563 | 1407 ft | 1 kts | 96° |
| 2026-05-06 12:35 | 47.45961 | 8.55562 | 1407 ft | 0 kts | 96° |
| 2026-05-06 12:37 | 47.45961 | 8.55563 | 1407 ft | 0 kts | 96° |
| 2026-05-06 12:37 | 47.45960 | 8.55595 | 1412 ft | 14 kts | 94° |
| 2026-05-06 12:37 | 47.45947 | 8.55744 | 1408 ft | 14 kts | 97° |
| 2026-05-06 12:38 | 47.45938 | 8.55881 | 1413 ft | 13 kts | 96° |
| 2026-05-06 12:38 | 47.45926 | 8.56051 | 1409 ft | 17 kts | 96° |
| 2026-05-06 12:38 | 47.45914 | 8.56222 | 1410 ft | 16 kts | 96° |
| 2026-05-06 12:38 | 47.45901 | 8.56327 | 1413 ft | 11 kts | 88° |
| 2026-05-06 12:39 | 47.45856 | 8.56471 | 1414 ft | 18 kts | 135° |
| 2026-05-06 12:39 | 47.45797 | 8.56615 | 1414 ft | 16 kts | 100° |
| 2026-05-06 12:39 | 47.45784 | 8.56785 | 1408 ft | 18 kts | 96° |
| 2026-05-06 12:39 | 47.45772 | 8.56953 | 1404 ft | 16 kts | 101° |
| 2026-05-06 12:40 | 47.45747 | 8.57015 | 1410 ft | 0 kts | 148° |
| 2026-05-06 12:40 | 47.45746 | 8.57016 | 1410 ft | 3 kts | 148° |
| 2026-05-06 12:40 | 47.45676 | 8.57028 | 1409 ft | 9 kts | 195° |
| 2026-05-06 12:40 | 47.45665 | 8.56987 | 1412 ft | 10 kts | 269° |
| 2026-05-06 12:41 | 47.45665 | 8.56966 | 1410 ft | 0 kts | 272° |
| 2026-05-06 12:41 | 47.45668 | 8.56913 | 1405 ft | 30 kts | 275° |
| 2026-05-06 12:41 | 47.45719 | 8.56182 | 1412 ft | 110 kts | 276° |
| 2026-05-06 12:42 | 47.45820 | 8.54767 | 1677 ft | 152 kts | 276° |
| 2026-05-06 12:42 | 47.45938 | 8.53194 | 2528 ft | 156 kts | 274° |
| 2026-05-06 12:42 | 47.46058 | 8.51576 | 3082 ft | 163 kts | 274° |
| 2026-05-06 12:42 | 47.46144 | 8.49850 | 3569 ft | 173 kts | 267° |
| 2026-05-06 12:43 | 47.45683 | 8.48218 | 4143 ft | 179 kts | 230° |
| 2026-05-06 12:43 | 47.44877 | 8.46826 | 4882 ft | 181 kts | 232° |
| 2026-05-06 12:43 | 47.44060 | 8.45286 | 5329 ft | 200 kts | 234° |
| 2026-05-06 12:43 | 47.43209 | 8.43566 | 5710 ft | 218 kts | 236° |
| 2026-05-06 12:44 | 47.42288 | 8.41640 | 6085 ft | 238 kts | 236° |
| 2026-05-06 12:44 | 47.41316 | 8.39588 | 6690 ft | 247 kts | 236° |
| 2026-05-06 12:44 | 47.40328 | 8.37499 | 7371 ft | 250 kts | 236° |
| 2026-05-06 12:44 | 47.39330 | 8.35377 | 8070 ft | 254 kts | 237° |
| 2026-05-06 12:45 | 47.38430 | 8.33128 | 8828 ft | 256 kts | 242° |
| 2026-05-06 12:45 | 47.37597 | 8.30795 | 9582 ft | 258 kts | 242° |
| 2026-05-06 12:45 | 47.35876 | 8.25928 | 10476 ft | 283 kts | 242° |
| 2026-05-06 12:46 | 47.34937 | 8.23272 | 10747 ft | 300 kts | 242° |
| 2026-05-06 12:46 | 47.33953 | 8.20495 | 11103 ft | 310 kts | 242° |
| 2026-05-06 12:46 | 47.32943 | 8.17661 | 11726 ft | 314 kts | 242° |
| 2026-05-06 12:46 | 47.31921 | 8.14796 | 12280 ft | 319 kts | 242° |
| 2026-05-06 12:47 | 47.30885 | 8.11878 | 12848 ft | 323 kts | 242° |
| 2026-05-06 12:47 | 47.29839 | 8.08935 | 13479 ft | 326 kts | 241° |
| 2026-05-06 12:47 | 47.28778 | 8.05963 | 14012 ft | 329 kts | 241° |
| 2026-05-06 12:47 | 47.27721 | 8.03000 | 14511 ft | 334 kts | 241° |
| 2026-05-06 12:48 | 47.26658 | 7.99884 | 15012 ft | 338 kts | 243° |
| 2026-05-06 12:48 | 47.25694 | 7.96702 | 15549 ft | 342 kts | 245° |
| 2026-05-06 12:48 | 47.24789 | 7.93493 | 16067 ft | 346 kts | 246° |
| 2026-05-06 12:48 | 47.23885 | 7.90186 | 16618 ft | 350 kts | 246° |
| 2026-05-06 12:49 | 47.22974 | 7.86840 | 17143 ft | 354 kts | 246° |
| 2026-05-06 12:49 | 47.22050 | 7.83468 | 17655 ft | 358 kts | 246° |
| 2026-05-06 12:49 | 47.21104 | 7.80051 | 18153 ft | 362 kts | 245° |
| 2026-05-06 12:49 | 47.20143 | 7.76614 | 18644 ft | 365 kts | 245° |
| 2026-05-06 12:50 | 47.19046 | 7.73239 | 19105 ft | 367 kts | 237° |
| 2026-05-06 12:50 | 47.17641 | 7.70103 | 19578 ft | 368 kts | 232° |
| 2026-05-06 12:50 | 47.16118 | 7.67062 | 20017 ft | 371 kts | 230° |
| 2026-05-06 12:50 | 47.14526 | 7.64061 | 20480 ft | 373 kts | 229° |
| 2026-05-06 12:51 | 47.12903 | 7.61086 | 20931 ft | 376 kts | 228° |
| 2026-05-06 12:51 | 47.11257 | 7.58092 | 21427 ft | 378 kts | 228° |
| 2026-05-06 12:51 | 47.09597 | 7.55073 | 21835 ft | 381 kts | 228° |
| 2026-05-06 12:51 | 47.07927 | 7.52023 | 22258 ft | 385 kts | 228° |
| 2026-05-06 12:52 | 47.06247 | 7.48945 | 22692 ft | 388 kts | 228° |
| 2026-05-06 12:52 | 47.04559 | 7.45844 | 23153 ft | 392 kts | 228° |
| 2026-05-06 12:52 | 47.02852 | 7.42704 | 23555 ft | 395 kts | 228° |
| 2026-05-06 12:52 | 47.01136 | 7.39550 | 23974 ft | 396 kts | 228° |
| 2026-05-06 12:53 | 46.99416 | 7.36400 | 24414 ft | 396 kts | 228° |
| 2026-05-06 12:53 | 46.97691 | 7.33252 | 24861 ft | 397 kts | 228° |
| 2026-05-06 12:53 | 46.95964 | 7.30106 | 25325 ft | 397 kts | 228° |
| 2026-05-06 12:53 | 46.94233 | 7.26953 | 25800 ft | 396 kts | 229° |
| 2026-05-06 12:54 | 46.92524 | 7.23834 | 26532 ft | 390 kts | 229° |
| 2026-05-06 12:54 | 46.90832 | 7.20745 | 27093 ft | 390 kts | 229° |
| 2026-05-06 12:54 | 46.89131 | 7.17646 | 27539 ft | 392 kts | 229° |
| 2026-05-06 12:54 | 46.87420 | 7.14535 | 28042 ft | 393 kts | 229° |
| 2026-05-06 12:55 | 46.85706 | 7.11421 | 28585 ft | 394 kts | 229° |
| 2026-05-06 12:55 | 46.83984 | 7.08296 | 29136 ft | 395 kts | 229° |
| 2026-05-06 12:55 | 46.82253 | 7.05158 | 29702 ft | 397 kts | 229° |
| 2026-05-06 12:55 | 46.80517 | 7.02016 | 30160 ft | 398 kts | 229° |
| 2026-05-06 12:56 | 46.78773 | 6.98860 | 30514 ft | 402 kts | 229° |
| 2026-05-06 12:56 | 46.77008 | 6.95672 | 30851 ft | 405 kts | 229° |
| 2026-05-06 12:56 | 46.75232 | 6.92467 | 31277 ft | 406 kts | 229° |
| 2026-05-06 12:56 | 46.73458 | 6.89268 | 31741 ft | 409 kts | 229° |
| 2026-05-06 12:57 | 46.71653 | 6.86019 | 31940 ft | 415 kts | 229° |
| 2026-05-06 12:57 | 46.69825 | 6.82733 | 32262 ft | 418 kts | 229° |
| 2026-05-06 12:57 | 46.67987 | 6.79431 | 32618 ft | 421 kts | 229° |
| 2026-05-06 12:57 | 46.66167 | 6.76075 | 32870 ft | 424 kts | 232° |
| 2026-05-06 12:58 | 46.64572 | 6.72559 | 32900 ft | 409 kts | 235° |
| 2026-05-06 12:58 | 46.63115 | 6.69159 | 32897 ft | 393 kts | 236° |
| 2026-05-06 12:58 | 46.61708 | 6.65797 | 32904 ft | 386 kts | 236° |
| 2026-05-06 12:59 | 46.58934 | 6.59116 | 32900 ft | 386 kts | 236° |
| 2026-05-06 12:59 | 46.56150 | 6.52435 | 32896 ft | 386 kts | 236° |
| 2026-05-06 13:00 | 46.53356 | 6.45768 | 32938 ft | 386 kts | 236° |
| 2026-05-06 13:00 | 46.50533 | 6.39059 | 32907 ft | 393 kts | 236° |
| 2026-05-06 13:01 | 46.47674 | 6.32279 | 32906 ft | 394 kts | 236° |
| 2026-05-06 13:01 | 46.44807 | 6.25496 | 32906 ft | 394 kts | 236° |
| 2026-05-06 13:02 | 46.41939 | 6.18727 | 32905 ft | 394 kts | 236° |
| 2026-05-06 13:02 | 46.39064 | 6.11956 | 32930 ft | 393 kts | 236° |
| 2026-05-06 13:03 | 46.36205 | 6.05241 | 32937 ft | 392 kts | 236° |
| 2026-05-06 13:03 | 46.33342 | 5.98534 | 32942 ft | 393 kts | 236° |
| 2026-05-06 13:04 | 46.30441 | 5.91757 | 32931 ft | 397 kts | 236° |
| 2026-05-06 13:04 | 46.27525 | 5.84959 | 32930 ft | 398 kts | 236° |
| 2026-05-06 13:05 | 46.24606 | 5.78168 | 32929 ft | 398 kts | 236° |
| 2026-05-06 13:05 | 46.21683 | 5.71386 | 32921 ft | 397 kts | 236° |
| 2026-05-06 13:06 | 46.18767 | 5.64636 | 32919 ft | 396 kts | 236° |
| 2026-05-06 13:06 | 46.15853 | 5.57908 | 32908 ft | 395 kts | 236° |
| 2026-05-06 13:07 | 46.12884 | 5.51206 | 32919 ft | 398 kts | 234° |
| 2026-05-06 13:07 | 46.09707 | 5.44644 | 32921 ft | 399 kts | 233° |
| 2026-05-06 13:08 | 46.06505 | 5.38115 | 32922 ft | 399 kts | 234° |
| 2026-05-06 13:08 | 46.03861 | 5.32673 | 32917 ft | 399 kts | 234° |
| 2026-05-06 13:09 | 46.00704 | 5.26138 | 32922 ft | 397 kts | 234° |
| 2026-05-06 13:09 | 45.97553 | 5.19617 | 32926 ft | 397 kts | 234° |
| 2026-05-06 13:10 | 45.94402 | 5.13111 | 32950 ft | 397 kts | 234° |
| 2026-05-06 13:10 | 45.91234 | 5.06590 | 32932 ft | 399 kts | 234° |
| 2026-05-06 13:11 | 45.88053 | 5.00056 | 32937 ft | 399 kts | 234° |
| 2026-05-06 13:11 | 45.84873 | 4.93540 | 32936 ft | 398 kts | 234° |
| 2026-05-06 13:12 | 45.81710 | 4.87073 | 32938 ft | 395 kts | 234° |
| 2026-05-06 13:12 | 45.78549 | 4.80626 | 32937 ft | 395 kts | 234° |
| 2026-05-06 13:13 | 45.75388 | 4.74196 | 32932 ft | 395 kts | 234° |
| 2026-05-06 13:13 | 45.72221 | 4.67767 | 32921 ft | 396 kts | 234° |
| 2026-05-06 13:14 | 45.69052 | 4.61342 | 32917 ft | 399 kts | 234° |
| 2026-05-06 13:14 | 45.65831 | 4.54832 | 32915 ft | 398 kts | 234° |
| 2026-05-06 13:15 | 45.62658 | 4.48431 | 32913 ft | 397 kts | 234° |
| 2026-05-06 13:15 | 45.59460 | 4.41994 | 32912 ft | 397 kts | 234° |
| 2026-05-06 13:16 | 45.56263 | 4.35574 | 32910 ft | 397 kts | 234° |
| 2026-05-06 13:16 | 45.53060 | 4.29154 | 32910 ft | 397 kts | 234° |
| 2026-05-06 13:17 | 45.49846 | 4.22719 | 32906 ft | 400 kts | 234° |
| 2026-05-06 13:17 | 45.46602 | 4.16262 | 32911 ft | 400 kts | 234° |
| 2026-05-06 13:18 | 45.43362 | 4.09827 | 32911 ft | 400 kts | 234° |
| 2026-05-06 13:18 | 45.40122 | 4.03402 | 32910 ft | 400 kts | 234° |
| 2026-05-06 13:19 | 45.36878 | 3.96981 | 32909 ft | 400 kts | 234° |
| 2026-05-06 13:19 | 45.33629 | 3.90565 | 32910 ft | 400 kts | 234° |
| 2026-05-06 13:20 | 45.30376 | 3.84155 | 32910 ft | 399 kts | 234° |
| 2026-05-06 13:20 | 45.27122 | 3.77759 | 32909 ft | 400 kts | 234° |
| 2026-05-06 13:21 | 45.23879 | 3.71346 | 32903 ft | 400 kts | 234° |
| 2026-05-06 13:21 | 45.20701 | 3.64867 | 32903 ft | 400 kts | 235° |
| 2026-05-06 13:22 | 45.17526 | 3.58381 | 32905 ft | 400 kts | 235° |
| 2026-05-06 13:22 | 45.14339 | 3.51918 | 32903 ft | 400 kts | 234° |
| 2026-05-06 13:23 | 45.11170 | 3.45520 | 32904 ft | 398 kts | 235° |
| 2026-05-06 13:23 | 45.07989 | 3.39117 | 32906 ft | 397 kts | 235° |
| 2026-05-06 13:24 | 45.04810 | 3.32731 | 32906 ft | 397 kts | 234° |
| 2026-05-06 13:24 | 45.01603 | 3.26304 | 32909 ft | 397 kts | 234° |
| 2026-05-06 13:25 | 44.98440 | 3.19975 | 32912 ft | 397 kts | 234° |
| 2026-05-06 13:25 | 44.95251 | 3.13611 | 32908 ft | 397 kts | 234° |
| 2026-05-06 13:26 | 44.92063 | 3.07263 | 32916 ft | 395 kts | 234° |
| 2026-05-06 13:26 | 44.88877 | 3.00933 | 32923 ft | 397 kts | 235° |
| 2026-05-06 13:27 | 44.85665 | 2.94563 | 32918 ft | 399 kts | 235° |
| 2026-05-06 13:27 | 44.82508 | 2.88114 | 32924 ft | 399 kts | 237° |
| 2026-05-06 13:28 | 44.79521 | 2.81526 | 32934 ft | 399 kts | 238° |
| 2026-05-06 13:28 | 44.76537 | 2.74934 | 32935 ft | 399 kts | 237° |
| 2026-05-06 13:29 | 44.73524 | 2.68378 | 32939 ft | 399 kts | 237° |
| 2026-05-06 13:29 | 44.70488 | 2.61827 | 32943 ft | 401 kts | 237° |
| 2026-05-06 13:30 | 44.67431 | 2.55254 | 32938 ft | 402 kts | 237° |
| 2026-05-06 13:30 | 44.64392 | 2.48729 | 32954 ft | 402 kts | 237° |
| 2026-05-06 13:31 | 44.61328 | 2.42164 | 32954 ft | 402 kts | 237° |
| 2026-05-06 13:31 | 44.58264 | 2.35613 | 32952 ft | 401 kts | 237° |
| 2026-05-06 13:32 | 44.55224 | 2.29128 | 32958 ft | 396 kts | 237° |
| 2026-05-06 13:32 | 44.52177 | 2.22645 | 32954 ft | 400 kts | 237° |
| 2026-05-06 13:33 | 44.49107 | 2.16125 | 32952 ft | 401 kts | 237° |
| 2026-05-06 13:33 | 44.46029 | 2.09605 | 32949 ft | 401 kts | 237° |
| 2026-05-06 13:34 | 44.42947 | 2.03093 | 32947 ft | 401 kts | 237° |
| 2026-05-06 13:34 | 44.39863 | 1.96585 | 32926 ft | 401 kts | 237° |
| 2026-05-06 13:35 | 44.36797 | 1.90133 | 32942 ft | 397 kts | 237° |
| 2026-05-06 13:35 | 44.33731 | 1.83696 | 32939 ft | 399 kts | 237° |
| 2026-05-06 13:36 | 44.30645 | 1.77232 | 32937 ft | 400 kts | 237° |
| 2026-05-06 13:36 | 44.27585 | 1.70761 | 32938 ft | 400 kts | 238° |
| 2026-05-06 13:37 | 44.24599 | 1.64226 | 32938 ft | 399 kts | 238° |
| 2026-05-06 13:37 | 44.21616 | 1.57688 | 32942 ft | 399 kts | 238° |
| 2026-05-06 13:38 | 44.18634 | 1.51201 | 32929 ft | 398 kts | 238° |
| 2026-05-06 13:38 | 44.15628 | 1.44693 | 32933 ft | 400 kts | 238° |
| 2026-05-06 13:39 | 44.12609 | 1.38176 | 32936 ft | 401 kts | 238° |
| 2026-05-06 13:39 | 44.09583 | 1.31661 | 32934 ft | 401 kts | 238° |
| 2026-05-06 13:40 | 44.06552 | 1.25147 | 32937 ft | 401 kts | 238° |
| 2026-05-06 13:40 | 44.03522 | 1.18651 | 32933 ft | 401 kts | 238° |
| 2026-05-06 13:41 | 44.00489 | 1.12163 | 32934 ft | 399 kts | 238° |
| 2026-05-06 13:41 | 43.97459 | 1.05694 | 32930 ft | 400 kts | 238° |
| 2026-05-06 13:42 | 43.94422 | 0.99223 | 32933 ft | 400 kts | 238° |
| 2026-05-06 13:42 | 43.91380 | 0.92759 | 32935 ft | 400 kts | 238° |
| 2026-05-06 13:43 | 43.88337 | 0.86301 | 32943 ft | 400 kts | 238° |
| 2026-05-06 13:43 | 43.85447 | 0.79723 | 32941 ft | 399 kts | 240° |
| 2026-05-06 13:44 | 43.82646 | 0.73069 | 32931 ft | 401 kts | 241° |
| 2026-05-06 13:44 | 43.79836 | 0.66465 | 32947 ft | 400 kts | 240° |
| 2026-05-06 13:45 | 43.76988 | 0.59861 | 32947 ft | 400 kts | 240° |
| 2026-05-06 13:45 | 43.72698 | 0.49972 | 32950 ft | 400 kts | 240° |
| 2026-05-06 13:46 | 43.69831 | 0.43377 | 32951 ft | 400 kts | 240° |
| 2026-05-06 13:46 | 43.67122 | 0.37158 | 32951 ft | 400 kts | 240° |
| 2026-05-06 13:47 | 43.64238 | 0.30555 | 32958 ft | 403 kts | 240° |
| 2026-05-06 13:47 | 43.61342 | 0.23938 | 32957 ft | 402 kts | 240° |
| 2026-05-06 13:48 | 43.58453 | 0.17353 | 32965 ft | 401 kts | 240° |
| 2026-05-06 13:48 | 43.55567 | 0.10788 | 32965 ft | 400 kts | 240° |
| 2026-05-06 13:49 | 43.52675 | 0.04225 | 32967 ft | 401 kts | 240° |
| 2026-05-06 13:49 | 43.49797 | -0.02290 | 32971 ft | 401 kts | 240° |
| 2026-05-06 13:50 | 43.46880 | -0.08881 | 32981 ft | 404 kts | 240° |
| 2026-05-06 13:50 | 43.43949 | -0.15485 | 32984 ft | 405 kts | 240° |
| 2026-05-06 13:51 | 43.41011 | -0.22093 | 33004 ft | 403 kts | 240° |
| 2026-05-06 13:51 | 43.38082 | -0.28665 | 32984 ft | 403 kts | 240° |
| 2026-05-06 13:52 | 43.35150 | -0.35230 | 32985 ft | 403 kts | 240° |
| 2026-05-06 13:52 | 43.32215 | -0.41784 | 33003 ft | 403 kts | 240° |
| 2026-05-06 13:53 | 43.29276 | -0.48334 | 32986 ft | 403 kts | 240° |
| 2026-05-06 13:53 | 43.26335 | -0.54876 | 33007 ft | 403 kts | 240° |
| 2026-05-06 13:54 | 43.23886 | -0.60309 | 32990 ft | 403 kts | 240° |
| 2026-05-06 13:54 | 43.20466 | -0.67882 | 32995 ft | 400 kts | 239° |
| 2026-05-06 13:55 | 43.18018 | -0.73290 | 33006 ft | 398 kts | 239° |
| 2026-05-06 13:55 | 43.15111 | -0.79696 | 33012 ft | 400 kts | 240° |
| 2026-05-06 13:56 | 43.12162 | -0.86189 | 33012 ft | 403 kts | 240° |
| 2026-05-06 13:56 | 43.09196 | -0.92704 | 33007 ft | 403 kts | 240° |
| 2026-05-06 13:57 | 43.06228 | -0.99202 | 33013 ft | 403 kts | 240° |
| 2026-05-06 13:57 | 43.03256 | -1.05696 | 33010 ft | 403 kts | 240° |
| 2026-05-06 13:58 | 43.00286 | -1.12175 | 32999 ft | 399 kts | 239° |
| 2026-05-06 13:58 | 42.97353 | -1.18554 | 33010 ft | 397 kts | 240° |
| 2026-05-06 13:59 | 42.94408 | -1.24945 | 33012 ft | 398 kts | 240° |
| 2026-05-06 13:59 | 42.91455 | -1.31341 | 33007 ft | 399 kts | 239° |
| 2026-05-06 14:00 | 42.88498 | -1.37729 | 33021 ft | 398 kts | 239° |
| 2026-05-06 14:00 | 42.85537 | -1.44112 | 33020 ft | 398 kts | 239° |
| 2026-05-06 14:01 | 42.82574 | -1.50488 | 33023 ft | 398 kts | 239° |
| 2026-05-06 14:01 | 42.79603 | -1.56870 | 33020 ft | 400 kts | 240° |
| 2026-05-06 14:02 | 42.76611 | -1.63281 | 33020 ft | 402 kts | 240° |
| 2026-05-06 14:02 | 42.73744 | -1.69790 | 33020 ft | 400 kts | 247° |
| 2026-05-06 14:03 | 42.71845 | -1.76870 | 33019 ft | 398 kts | 254° |
| 2026-05-06 14:03 | 42.70224 | -1.84006 | 33021 ft | 398 kts | 255° |
| 2026-05-06 14:04 | 42.68617 | -1.91254 | 33011 ft | 398 kts | 255° |
| 2026-05-06 14:04 | 42.67016 | -1.98394 | 33014 ft | 397 kts | 255° |
| 2026-05-06 14:05 | 42.65389 | -2.05568 | 33016 ft | 397 kts | 255° |
| 2026-05-06 14:05 | 42.63754 | -2.12733 | 33016 ft | 397 kts | 255° |
| 2026-05-06 14:06 | 42.62103 | -2.19884 | 33017 ft | 397 kts | 254° |
| 2026-05-06 14:06 | 42.60370 | -2.27002 | 33018 ft | 397 kts | 253° |
| 2026-05-06 14:07 | 42.58621 | -2.34110 | 33008 ft | 396 kts | 253° |
| 2026-05-06 14:07 | 42.56892 | -2.41163 | 33013 ft | 393 kts | 253° |
| 2026-05-06 14:08 | 42.55174 | -2.48191 | 33017 ft | 392 kts | 253° |
| 2026-05-06 14:08 | 42.53453 | -2.55214 | 33013 ft | 392 kts | 253° |
| 2026-05-06 14:09 | 42.51729 | -2.62227 | 33009 ft | 392 kts | 253° |
| 2026-05-06 14:09 | 42.50002 | -2.69232 | 33003 ft | 392 kts | 253° |
| 2026-05-06 14:10 | 42.48268 | -2.76242 | 32995 ft | 392 kts | 253° |
| 2026-05-06 14:10 | 42.46532 | -2.83241 | 32999 ft | 392 kts | 253° |
| 2026-05-06 14:11 | 42.44601 | -2.90146 | 32995 ft | 393 kts | 249° |
| 2026-05-06 14:11 | 42.42359 | -2.96892 | 33001 ft | 393 kts | 248° |
| 2026-05-06 14:12 | 42.40063 | -3.03609 | 32989 ft | 393 kts | 248° |
| 2026-05-06 14:12 | 42.37761 | -3.10323 | 32996 ft | 393 kts | 247° |
| 2026-05-06 14:13 | 42.35460 | -3.17039 | 32985 ft | 393 kts | 247° |
| 2026-05-06 14:13 | 42.33170 | -3.23715 | 32990 ft | 391 kts | 247° |
| 2026-05-06 14:14 | 42.30881 | -3.30374 | 32989 ft | 391 kts | 247° |
| 2026-05-06 14:14 | 42.28587 | -3.37032 | 32989 ft | 391 kts | 247° |
| 2026-05-06 14:15 | 42.26291 | -3.43680 | 32980 ft | 391 kts | 247° |
| 2026-05-06 14:15 | 42.23987 | -3.50339 | 32990 ft | 392 kts | 247° |
| 2026-05-06 14:16 | 42.21675 | -3.57000 | 32989 ft | 392 kts | 247° |
| 2026-05-06 14:16 | 42.19352 | -3.63676 | 32987 ft | 392 kts | 247° |
| 2026-05-06 14:17 | 42.17031 | -3.70331 | 32974 ft | 392 kts | 247° |
| 2026-05-06 14:17 | 42.14707 | -3.76982 | 32974 ft | 392 kts | 246° |
| 2026-05-06 14:18 | 42.12381 | -3.83620 | 32969 ft | 392 kts | 246° |
| 2026-05-06 14:18 | 42.10045 | -3.90270 | 32977 ft | 393 kts | 246° |
| 2026-05-06 14:19 | 42.07904 | -3.96354 | 32973 ft | 393 kts | 246° |
| 2026-05-06 14:19 | 42.05697 | -4.02609 | 32973 ft | 393 kts | 246° |
| 2026-05-06 14:20 | 42.03335 | -4.09289 | 32973 ft | 393 kts | 246° |
| 2026-05-06 14:20 | 42.00963 | -4.15850 | 32975 ft | 393 kts | 245° |
| 2026-05-06 14:21 | 41.98457 | -4.22377 | 32974 ft | 393 kts | 244° |
| 2026-05-06 14:21 | 41.95940 | -4.28897 | 32970 ft | 393 kts | 244° |
| 2026-05-06 14:22 | 41.93439 | -4.35421 | 32975 ft | 393 kts | 245° |
| 2026-05-06 14:22 | 41.90943 | -4.41948 | 32976 ft | 393 kts | 245° |
| 2026-05-06 14:23 | 41.88449 | -4.48462 | 32971 ft | 392 kts | 244° |
| 2026-05-06 14:23 | 41.85956 | -4.54956 | 32971 ft | 392 kts | 244° |
| 2026-05-06 14:24 | 41.83458 | -4.61450 | 32974 ft | 392 kts | 244° |
| 2026-05-06 14:24 | 41.80953 | -4.67943 | 32974 ft | 392 kts | 244° |
| 2026-05-06 14:25 | 41.78442 | -4.74439 | 32991 ft | 392 kts | 244° |
| 2026-05-06 14:25 | 41.75926 | -4.80932 | 32993 ft | 392 kts | 244° |
| 2026-05-06 14:26 | 41.73410 | -4.87410 | 32993 ft | 392 kts | 244° |
| 2026-05-06 14:26 | 41.70888 | -4.93890 | 32993 ft | 392 kts | 244° |
| 2026-05-06 14:27 | 41.68364 | -5.00364 | 32992 ft | 393 kts | 244° |
| 2026-05-06 14:27 | 41.65828 | -5.06851 | 32979 ft | 393 kts | 244° |
| 2026-05-06 14:28 | 41.63296 | -5.13314 | 32982 ft | 392 kts | 244° |
| 2026-05-06 14:28 | 41.60763 | -5.19764 | 32973 ft | 392 kts | 244° |
| 2026-05-06 14:29 | 41.58242 | -5.26170 | 32969 ft | 392 kts | 244° |
| 2026-05-06 14:29 | 41.55703 | -5.32607 | 32965 ft | 392 kts | 244° |
| 2026-05-06 14:30 | 41.53573 | -5.37996 | 32963 ft | 392 kts | 243° |
| 2026-05-06 14:30 | 41.50613 | -5.45471 | 32962 ft | 392 kts | 243° |
| 2026-05-06 14:31 | 41.48061 | -5.51899 | 32961 ft | 392 kts | 243° |
| 2026-05-06 14:31 | 41.45507 | -5.58318 | 32960 ft | 392 kts | 243° |
| 2026-05-06 14:32 | 41.44227 | -5.61529 | 32957 ft | 392 kts | 243° |